sensor_id;sensor_type;location;lat;lon;timestamp;pressure;altitude;pressure_sealevel;temperature;humidity
24666;BME280;29726;53.532;-1.478;2023-01-15T00:00:49;97989.16;;;9.06;100.00
24666;BME280;29726;53.532;-1.478;2023-01-15T00:03:14;97925.50;;;8.62;100.00
24666;BME280;29726;53.532;-1.478;2023-01-15T00:05:39;97993.72;;;9.04;100.00
24666;BME280;29726;53.532;-1.478;2023-01-15T00:08:05;98000.53;;;9.03;100.00
24666;BME280;29726;53.532;-1.478;2023-01-15T00:10:30;97981.88;;;8.98;100.00
24666;BME280;29726;53.532;-1.478;2023-01-15T00:12:55;97970.50;;;8.96;100.00
24666;BME280;29726;53.532;-1.478;2023-01-15T00:15:21;97961.97;;;8.88;100.00
24666;BME280;29726;53.532;-1.478;2023-01-15T00:17:47;97969.47;;;8.99;100.00
24666;BME280;29726;53.532;-1.478;2023-01-15T00:20:12;97979.84;;;8.98;100.00
24666;BME280;29726;53.532;-1.478;2023-01-15T00:22:38;97984.41;;;8.96;100.00
24666;BME280;29726;53.532;-1.478;2023-01-15T00:25:04;97961.72;;;8.86;100.00
24666;BME280;29726;53.532;-1.478;2023-01-15T00:27:48;97969.78;;;8.90;100.00
24666;BME280;29726;53.532;-1.478;2023-01-15T00:30:14;97974.31;;;8.93;100.00
24666;BME280;29726;53.532;-1.478;2023-01-15T00:32:41;97972.78;;;8.92;100.00
24666;BME280;29726;53.532;-1.478;2023-01-15T00:35:11;97958.66;;;8.90;100.00
24666;BME280;29726;53.532;-1.478;2023-01-15T00:37:37;97969.31;;;8.86;100.00
24666;BME280;29726;53.532;-1.478;2023-01-15T00:40:02;97971.34;;;8.85;100.00
24666;BME280;29726;53.532;-1.478;2023-01-15T00:42:28;97982.72;;;8.87;100.00
24666;BME280;29726;53.532;-1.478;2023-01-15T00:44:53;97988.78;;;8.86;100.00
24666;BME280;29726;53.532;-1.478;2023-01-15T00:47:19;97959.22;;;8.83;100.00
24666;BME280;29726;53.532;-1.478;2023-01-15T00:49:44;97904.91;;;8.47;100.00
24666;BME280;29726;53.532;-1.478;2023-01-15T00:52:11;97947.69;;;8.68;100.00
24666;BME280;29726;53.532;-1.478;2023-01-15T00:54:36;97963.03;;;8.80;100.00
24666;BME280;29726;53.532;-1.478;2023-01-15T00:57:02;97972.66;;;8.79;100.00
24666;BME280;29726;53.532;-1.478;2023-01-15T00:59:28;97988.56;;;8.78;100.00
24666;BME280;29726;53.532;-1.478;2023-01-15T01:01:53;97955.28;;;8.67;100.00
24666;BME280;29726;53.532;-1.478;2023-01-15T01:04:19;97983.78;;;8.79;100.00
24666;BME280;29726;53.532;-1.478;2023-01-15T01:06:44;97960.63;;;8.65;100.00
24666;BME280;29726;53.532;-1.478;2023-01-15T01:09:12;97990.63;;;8.78;100.00
24666;BME280;29726;53.532;-1.478;2023-01-15T01:11:38;97993.91;;;8.76;100.00
24666;BME280;29726;53.532;-1.478;2023-01-15T01:14:04;97975.22;;;8.71;100.00
24666;BME280;29726;53.532;-1.478;2023-01-15T01:16:37;97991.66;;;8.75;100.00
24666;BME280;29726;53.532;-1.478;2023-01-15T01:19:15;97999.00;;;8.72;100.00
24666;BME280;29726;53.532;-1.478;2023-01-15T01:21:42;97993.97;;;8.71;100.00
24666;BME280;29726;53.532;-1.478;2023-01-15T01:24:11;97992.19;;;8.68;100.00
24666;BME280;29726;53.532;-1.478;2023-01-15T01:26:36;97985.34;;;8.69;100.00
24666;BME280;29726;53.532;-1.478;2023-01-15T01:29:02;97955.84;;;8.60;100.00
24666;BME280;29726;53.532;-1.478;2023-01-15T01:31:28;97927.56;;;8.56;100.00
24666;BME280;29726;53.532;-1.478;2023-01-15T01:33:56;97895.03;;;8.46;100.00
24666;BME280;29726;53.532;-1.478;2023-01-15T01:36:28;97939.41;;;8.62;100.00
24666;BME280;29726;53.532;-1.478;2023-01-15T01:38:53;97940.19;;;8.57;100.00
24666;BME280;29726;53.532;-1.478;2023-01-15T01:41:19;97938.44;;;8.54;100.00
24666;BME280;29726;53.532;-1.478;2023-01-15T01:46:19;97923.31;;;8.50;100.00
24666;BME280;29726;53.532;-1.478;2023-01-15T01:48:44;97925.53;;;8.57;100.00
24666;BME280;29726;53.532;-1.478;2023-01-15T01:51:11;97909.19;;;8.48;100.00
24666;BME280;29726;53.532;-1.478;2023-01-15T01:53:37;97903.09;;;8.49;100.00
24666;BME280;29726;53.532;-1.478;2023-01-15T01:56:03;97920.25;;;8.53;100.00
24666;BME280;29726;53.532;-1.478;2023-01-15T01:58:31;97919.50;;;8.53;100.00
24666;BME280;29726;53.532;-1.478;2023-01-15T02:00:58;97916.25;;;8.49;100.00
24666;BME280;29726;53.532;-1.478;2023-01-15T02:03:30;97907.38;;;8.50;100.00
24666;BME280;29726;53.532;-1.478;2023-01-15T02:06:02;97912.28;;;8.33;100.00
24666;BME280;29726;53.532;-1.478;2023-01-15T02:08:29;97873.78;;;8.14;100.00
24666;BME280;29726;53.532;-1.478;2023-01-15T02:10:56;97923.09;;;8.48;100.00
24666;BME280;29726;53.532;-1.478;2023-01-15T02:13:31;97940.50;;;8.48;100.00
24666;BME280;29726;53.532;-1.478;2023-01-15T02:24:27;97923.34;;;8.44;100.00
24666;BME280;29726;53.532;-1.478;2023-01-15T02:29:39;97891.56;;;8.34;100.00
24666;BME280;29726;53.532;-1.478;2023-01-15T02:32:15;97919.63;;;8.36;100.00
24666;BME280;29726;53.532;-1.478;2023-01-15T02:34:48;97898.69;;;8.30;100.00
24666;BME280;29726;53.532;-1.478;2023-01-15T02:37:23;97924.69;;;8.32;100.00
24666;BME280;29726;53.532;-1.478;2023-01-15T02:39:50;97896.94;;;8.27;100.00
24666;BME280;29726;53.532;-1.478;2023-01-15T02:42:19;97907.28;;;8.32;100.00
24666;BME280;29726;53.532;-1.478;2023-01-15T02:44:50;97912.06;;;8.31;100.00
24666;BME280;29726;53.532;-1.478;2023-01-15T02:47:19;97904.72;;;8.34;100.00
24666;BME280;29726;53.532;-1.478;2023-01-15T02:49:46;97905.28;;;8.27;100.00
24666;BME280;29726;53.532;-1.478;2023-01-15T02:52:18;97892.44;;;8.24;100.00
24666;BME280;29726;53.532;-1.478;2023-01-15T02:54:51;97914.34;;;8.33;100.00
24666;BME280;29726;53.532;-1.478;2023-01-15T02:57:17;97890.41;;;8.19;100.00
24666;BME280;29726;53.532;-1.478;2023-01-15T02:59:47;97894.69;;;8.25;100.00
24666;BME280;29726;53.532;-1.478;2023-01-15T03:02:17;97878.31;;;8.17;100.00
24666;BME280;29726;53.532;-1.478;2023-01-15T03:05:05;97893.66;;;8.28;100.00
24666;BME280;29726;53.532;-1.478;2023-01-15T03:07:40;97896.94;;;8.27;100.00
24666;BME280;29726;53.532;-1.478;2023-01-15T03:10:08;97886.59;;;8.22;100.00
24666;BME280;29726;53.532;-1.478;2023-01-15T03:12:43;97903.78;;;8.26;100.00
24666;BME280;29726;53.532;-1.478;2023-01-15T03:15:52;97830.75;;;7.91;100.00
24666;BME280;29726;53.532;-1.478;2023-01-15T03:18:54;97870.97;;;8.19;100.00
24666;BME280;29726;53.532;-1.478;2023-01-15T03:21:27;97864.66;;;8.13;100.00
24666;BME280;29726;53.532;-1.478;2023-01-15T03:23:55;97881.56;;;8.26;100.00
24666;BME280;29726;53.532;-1.478;2023-01-15T03:26:22;97871.75;;;8.14;100.00
24666;BME280;29726;53.532;-1.478;2023-01-15T03:28:48;97852.28;;;8.14;100.00
24666;BME280;29726;53.532;-1.478;2023-01-15T03:31:15;97863.38;;;8.25;100.00
24666;BME280;29726;53.532;-1.478;2023-01-15T03:33:41;97852.53;;;8.22;100.00
24666;BME280;29726;53.532;-1.478;2023-01-15T03:36:07;97792.38;;;7.89;100.00
24666;BME280;29726;53.532;-1.478;2023-01-15T03:38:35;97803.22;;;7.93;100.00
24666;BME280;29726;53.532;-1.478;2023-01-15T03:43:57;97827.00;;;8.23;100.00
24666;BME280;29726;53.532;-1.478;2023-01-15T03:46:36;97816.44;;;8.11;100.00
24666;BME280;29726;53.532;-1.478;2023-01-15T03:53:03;97816.41;;;8.16;100.00
24666;BME280;29726;53.532;-1.478;2023-01-15T03:55:39;97802.78;;;8.18;100.00
24666;BME280;29726;53.532;-1.478;2023-01-15T03:58:17;97808.06;;;8.22;100.00
24666;BME280;29726;53.532;-1.478;2023-01-15T04:00:56;97816.91;;;8.20;100.00
24666;BME280;29726;53.532;-1.478;2023-01-15T04:03:25;97795.69;;;8.17;100.00
24666;BME280;29726;53.532;-1.478;2023-01-15T04:05:54;97807.31;;;8.21;100.00
24666;BME280;29726;53.532;-1.478;2023-01-15T04:08:22;97810.63;;;8.20;100.00
24666;BME280;29726;53.532;-1.478;2023-01-15T04:10:56;97807.06;;;8.19;100.00
24666;BME280;29726;53.532;-1.478;2023-01-15T04:13:22;97790.72;;;8.10;100.00
24666;BME280;29726;53.532;-1.478;2023-01-15T04:15:48;97793.22;;;8.14;100.00
24666;BME280;29726;53.532;-1.478;2023-01-15T04:18:13;97796.97;;;8.16;100.00
24666;BME280;29726;53.532;-1.478;2023-01-15T04:20:39;97802.78;;;8.18;100.00
24666;BME280;29726;53.532;-1.478;2023-01-15T04:23:04;97761.25;;;7.96;100.00
24666;BME280;29726;53.532;-1.478;2023-01-15T04:25:30;97785.38;;;8.12;100.00
24666;BME280;29726;53.532;-1.478;2023-01-15T04:27:55;97771.00;;;8.14;100.00
24666;BME280;29726;53.532;-1.478;2023-01-15T04:30:21;97807.59;;;8.18;100.00
24666;BME280;29726;53.532;-1.478;2023-01-15T04:32:48;97766.41;;;8.16;100.00
24666;BME280;29726;53.532;-1.478;2023-01-15T04:35:14;97734.53;;;7.93;100.00
24666;BME280;29726;53.532;-1.478;2023-01-15T04:37:39;97743.00;;;8.06;100.00
24666;BME280;29726;53.532;-1.478;2023-01-15T04:40:05;97759.13;;;8.13;100.00
24666;BME280;29726;53.532;-1.478;2023-01-15T04:42:31;97769.22;;;8.11;100.00
24666;BME280;29726;53.532;-1.478;2023-01-15T04:45:15;97723.59;;;8.01;100.00
24666;BME280;29726;53.532;-1.478;2023-01-15T04:47:40;97747.31;;;8.07;100.00
24666;BME280;29726;53.532;-1.478;2023-01-15T04:50:06;97744.75;;;8.09;100.00
24666;BME280;29726;53.532;-1.478;2023-01-15T04:52:32;97745.72;;;8.12;100.00
24666;BME280;29726;53.532;-1.478;2023-01-15T04:54:58;97738.97;;;8.07;100.00
24666;BME280;29726;53.532;-1.478;2023-01-15T04:57:23;97726.19;;;7.93;100.00
24666;BME280;29726;53.532;-1.478;2023-01-15T04:59:49;97738.72;;;8.05;100.00
24666;BME280;29726;53.532;-1.478;2023-01-15T05:02:14;97760.38;;;8.12;100.00
24666;BME280;29726;53.532;-1.478;2023-01-15T05:04:40;97720.38;;;7.97;100.00
24666;BME280;29726;53.532;-1.478;2023-01-15T05:07:05;97742.22;;;8.11;100.00
24666;BME280;29726;53.532;-1.478;2023-01-15T05:09:31;97743.25;;;8.08;100.00
24666;BME280;29726;53.532;-1.478;2023-01-15T05:11:56;97734.63;;;8.12;100.00
24666;BME280;29726;53.532;-1.478;2023-01-15T05:14:22;97727.91;;;8.02;100.00
24666;BME280;29726;53.532;-1.478;2023-01-15T05:16:47;97729.34;;;8.08;100.00
24666;BME280;29726;53.532;-1.478;2023-01-15T05:19:13;97742.72;;;8.10;100.00
24666;BME280;29726;53.532;-1.478;2023-01-15T05:21:43;97685.03;;;7.62;100.00
24666;BME280;29726;53.532;-1.478;2023-01-15T05:24:12;97777.06;;;8.12;100.00
24666;BME280;29726;53.532;-1.478;2023-01-15T05:26:38;97760.66;;;8.09;100.00
24666;BME280;29726;53.532;-1.478;2023-01-15T05:29:03;97719.25;;;7.76;100.00
24666;BME280;29726;53.532;-1.478;2023-01-15T05:31:30;97777.81;;;8.13;100.00
24666;BME280;29726;53.532;-1.478;2023-01-15T05:33:58;97799.28;;;8.12;100.00
24666;BME280;29726;53.532;-1.478;2023-01-15T05:36:26;97796.50;;;8.12;100.00
24666;BME280;29726;53.532;-1.478;2023-01-15T05:38:52;97758.34;;;7.83;100.00
24666;BME280;29726;53.532;-1.478;2023-01-15T05:41:19;97791.75;;;8.07;100.00
24666;BME280;29726;53.532;-1.478;2023-01-15T05:44:06;97798.78;;;8.14;100.00
24666;BME280;29726;53.532;-1.478;2023-01-15T05:46:32;97807.84;;;8.14;100.00
24666;BME280;29726;53.532;-1.478;2023-01-15T05:48:59;97807.09;;;8.14;100.00
24666;BME280;29726;53.532;-1.478;2023-01-15T05:51:26;97814.44;;;8.11;100.00
24666;BME280;29726;53.532;-1.478;2023-01-15T05:53:51;97794.75;;;8.09;100.00
24666;BME280;29726;53.532;-1.478;2023-01-15T05:56:17;97813.16;;;8.12;100.00
24666;BME280;29726;53.532;-1.478;2023-01-15T05:58:42;97766.66;;;7.83;100.00
24666;BME280;29726;53.532;-1.478;2023-01-15T06:01:08;97815.13;;;8.17;100.00
24666;BME280;29726;53.532;-1.478;2023-01-15T06:03:34;97812.66;;;8.14;100.00
24666;BME280;29726;53.532;-1.478;2023-01-15T06:06:00;97794.28;;;8.05;100.00
24666;BME280;29726;53.532;-1.478;2023-01-15T06:08:25;97806.38;;;8.08;100.00
24666;BME280;29726;53.532;-1.478;2023-01-15T06:10:50;97821.50;;;8.18;100.00
24666;BME280;29726;53.532;-1.478;2023-01-15T06:13:16;97806.06;;;8.17;100.00
24666;BME280;29726;53.532;-1.478;2023-01-15T06:15:42;97802.56;;;8.11;100.00
24666;BME280;29726;53.532;-1.478;2023-01-15T06:18:07;97806.34;;;8.19;100.00
24666;BME280;29726;53.532;-1.478;2023-01-15T06:20:36;97807.88;;;8.09;100.00
24666;BME280;29726;53.532;-1.478;2023-01-15T06:23:02;97812.66;;;8.14;100.00
24666;BME280;29726;53.532;-1.478;2023-01-15T06:25:27;97824.28;;;8.18;100.00
24666;BME280;29726;53.532;-1.478;2023-01-15T06:27:53;97825.25;;;8.20;100.00
24666;BME280;29726;53.532;-1.478;2023-01-15T06:30:18;97827.53;;;8.22;100.00
24666;BME280;29726;53.532;-1.478;2023-01-15T06:32:44;97826.03;;;8.15;100.00
24666;BME280;29726;53.532;-1.478;2023-01-15T06:35:10;97838.09;;;8.23;100.00
24666;BME280;29726;53.532;-1.478;2023-01-15T06:37:36;97830.31;;;8.16;100.00
24666;BME280;29726;53.532;-1.478;2023-01-15T06:40:01;97803.34;;;8.06;100.00
24666;BME280;29726;53.532;-1.478;2023-01-15T06:42:27;97828.78;;;8.15;100.00
24666;BME280;29726;53.532;-1.478;2023-01-15T06:45:11;97833.34;;;8.18;100.00
24666;BME280;29726;53.532;-1.478;2023-01-15T06:47:56;97845.94;;;8.24;100.00
24666;BME280;29726;53.532;-1.478;2023-01-15T06:50:22;97838.63;;;8.22;100.00
24666;BME280;29726;53.532;-1.478;2023-01-15T06:52:48;97829.28;;;8.19;100.00
24666;BME280;29726;53.532;-1.478;2023-01-15T06:55:13;97813.19;;;8.07;100.00
24666;BME280;29726;53.532;-1.478;2023-01-15T06:57:39;97824.75;;;8.16;100.00
24666;BME280;29726;53.532;-1.478;2023-01-15T07:00:06;97842.66;;;8.26;100.00
24666;BME280;29726;53.532;-1.478;2023-01-15T07:02:32;97847.44;;;8.25;100.00
24666;BME280;29726;53.532;-1.478;2023-01-15T07:04:58;97837.63;;;8.19;100.00
24666;BME280;29726;53.532;-1.478;2023-01-15T07:07:23;97848.00;;;8.19;100.00
24666;BME280;29726;53.532;-1.478;2023-01-15T07:09:49;97838.16;;;8.18;100.00
24666;BME280;29726;53.532;-1.478;2023-01-15T07:12:15;97858.81;;;8.22;100.00
24666;BME280;29726;53.532;-1.478;2023-01-15T07:14:40;97838.41;;;8.14;100.00
24666;BME280;29726;53.532;-1.478;2023-01-15T07:17:06;97848.47;;;8.17;100.00
24666;BME280;29726;53.532;-1.478;2023-01-15T07:19:31;97843.19;;;8.19;100.00
24666;BME280;29726;53.532;-1.478;2023-01-15T07:21:56;97850.50;;;8.22;100.00
24666;BME280;29726;53.532;-1.478;2023-01-15T07:24:22;97852.00;;;8.23;100.00
24666;BME280;29726;53.532;-1.478;2023-01-15T07:26:47;97843.47;;;8.16;100.00
24666;BME280;29726;53.532;-1.478;2023-01-15T07:29:13;97862.84;;;8.26;100.00
24666;BME280;29726;53.532;-1.478;2023-01-15T07:31:39;97813.56;;;7.92;100.00
24666;BME280;29726;53.532;-1.478;2023-01-15T07:34:05;97858.06;;;8.27;100.00
24666;BME280;29726;53.532;-1.478;2023-01-15T07:36:30;97841.94;;;8.15;100.00
24666;BME280;29726;53.532;-1.478;2023-01-15T07:38:56;97861.06;;;8.29;100.00
24666;BME280;29726;53.532;-1.478;2023-01-15T07:41:22;97834.13;;;8.19;100.00
24666;BME280;29726;53.532;-1.478;2023-01-15T07:44:09;97850.22;;;8.25;100.00
24666;BME280;29726;53.532;-1.478;2023-01-15T07:46:53;97852.25;;;8.25;100.00
24666;BME280;29726;53.532;-1.478;2023-01-15T07:49:40;97854.78;;;8.23;100.00
24666;BME280;29726;53.532;-1.478;2023-01-15T07:52:20;97860.84;;;8.27;100.00
24666;BME280;29726;53.532;-1.478;2023-01-15T07:54:48;97873.97;;;8.26;100.00
24666;BME280;29726;53.532;-1.478;2023-01-15T07:57:17;97851.06;;;8.10;100.00
24666;BME280;29726;53.532;-1.478;2023-01-15T07:59:43;97889.66;;;8.24;100.00
24666;BME280;29726;53.532;-1.478;2023-01-15T08:02:09;97891.63;;;8.29;100.00
24666;BME280;29726;53.532;-1.478;2023-01-15T08:04:35;97887.13;;;8.26;100.00
24666;BME280;29726;53.532;-1.478;2023-01-15T08:07:01;97874.28;;;8.18;100.00
24666;BME280;29726;53.532;-1.478;2023-01-15T08:09:27;97872.50;;;8.15;100.00
24666;BME280;29726;53.532;-1.478;2023-01-15T08:11:54;97882.09;;;8.14;100.00
24666;BME280;29726;53.532;-1.478;2023-01-15T08:14:38;97873.78;;;8.14;100.00
24666;BME280;29726;53.532;-1.478;2023-01-15T08:17:22;97889.69;;;8.19;100.00
24666;BME280;29726;53.532;-1.478;2023-01-15T08:19:48;97894.91;;;8.27;100.00
24666;BME280;29726;53.532;-1.478;2023-01-15T08:22:13;97891.16;;;8.25;100.00
24666;BME280;29726;53.532;-1.478;2023-01-15T08:24:38;97910.88;;;8.22;100.00
24666;BME280;29726;53.532;-1.478;2023-01-15T08:27:04;97921.97;;;8.27;100.00
24666;BME280;29726;53.532;-1.478;2023-01-15T08:29:30;97936.84;;;8.29;100.00
24666;BME280;29726;53.532;-1.478;2023-01-15T08:31:55;97929.78;;;8.23;100.00
24666;BME280;29726;53.532;-1.478;2023-01-15T08:34:21;97935.84;;;8.27;100.00
24666;BME280;29726;53.532;-1.478;2023-01-15T08:36:46;97886.53;;;7.93;100.00
24666;BME280;29726;53.532;-1.478;2023-01-15T08:39:13;97936.63;;;8.22;100.00
24666;BME280;29726;53.532;-1.478;2023-01-15T08:41:39;97946.19;;;8.26;100.00
24666;BME280;29726;53.532;-1.478;2023-01-15T08:44:04;97958.59;;;8.25;100.00
24666;BME280;29726;53.532;-1.478;2023-01-15T08:46:30;97964.91;;;8.26;100.00
24666;BME280;29726;53.532;-1.478;2023-01-15T08:48:55;97974.53;;;8.25;100.00
24666;BME280;29726;53.532;-1.478;2023-01-15T08:51:20;97970.22;;;8.24;100.00
24666;BME280;29726;53.532;-1.478;2023-01-15T08:53:46;97951.81;;;8.16;100.00
24666;BME280;29726;53.532;-1.478;2023-01-15T08:56:16;97964.41;;;8.22;100.00
24666;BME280;29726;53.532;-1.478;2023-01-15T08:58:42;97996.94;;;8.32;100.00
24666;BME280;29726;53.532;-1.478;2023-01-15T09:01:09;97979.06;;;8.17;100.00
24666;BME280;29726;53.532;-1.478;2023-01-15T09:03:36;97994.94;;;8.33;100.00
24666;BME280;29726;53.532;-1.478;2023-01-15T09:06:02;97995.66;;;8.33;100.00
24666;BME280;29726;53.532;-1.478;2023-01-15T09:08:30;98005.53;;;8.34;100.00
24666;BME280;29726;53.532;-1.478;2023-01-15T09:11:00;97996.94;;;8.32;100.00
24666;BME280;29726;53.532;-1.478;2023-01-15T09:13:27;98001.75;;;8.37;100.00
24666;BME280;29726;53.532;-1.478;2023-01-15T09:15:53;97998.19;;;8.37;100.00
24666;BME280;29726;53.532;-1.478;2023-01-15T09:18:19;97994.91;;;8.38;100.00
24666;BME280;29726;53.532;-1.478;2023-01-15T09:20:47;97999.94;;;8.40;100.00
24666;BME280;29726;53.532;-1.478;2023-01-15T09:23:13;97992.38;;;8.40;100.00
24666;BME280;29726;53.532;-1.478;2023-01-15T09:25:39;97992.59;;;8.42;100.00
24666;BME280;29726;53.532;-1.478;2023-01-15T09:28:05;97976.50;;;8.30;100.00
24666;BME280;29726;53.532;-1.478;2023-01-15T09:30:31;97994.34;;;8.45;100.00
24666;BME280;29726;53.532;-1.478;2023-01-15T09:32:57;97988.59;;;8.38;100.00
24666;BME280;29726;53.532;-1.478;2023-01-15T09:35:22;98011.78;;;8.46;100.00
24666;BME280;29726;53.532;-1.478;2023-01-15T09:37:51;98023.88;;;8.54;100.00
24666;BME280;29726;53.532;-1.478;2023-01-15T09:46:16;98045.53;;;8.66;100.00
24666;BME280;29726;53.532;-1.478;2023-01-15T09:56:56;98053.34;;;8.73;100.00
24666;BME280;29726;53.532;-1.478;2023-01-15T09:59:33;98076.75;;;8.89;100.00
24666;BME280;29726;53.532;-1.478;2023-01-15T10:02:11;98067.94;;;8.85;100.00
24666;BME280;29726;53.532;-1.478;2023-01-15T10:04:44;98080.28;;;8.95;100.00
24666;BME280;29726;53.532;-1.478;2023-01-15T10:10:00;98096.16;;;9.05;100.00
24666;BME280;29726;53.532;-1.478;2023-01-15T10:12:29;98102.66;;;9.13;100.00
24666;BME280;29726;53.532;-1.478;2023-01-15T10:15:24;98093.00;;;9.20;100.00
24666;BME280;29726;53.532;-1.478;2023-01-15T10:17:56;98079.38;;;9.16;100.00
24666;BME280;29726;53.532;-1.478;2023-01-15T10:25:48;98072.63;;;9.36;100.00
24666;BME280;29726;53.532;-1.478;2023-01-15T10:28:28;98075.09;;;9.45;100.00
24666;BME280;29726;53.532;-1.478;2023-01-15T10:30:55;98075.81;;;9.51;100.00
24666;BME280;29726;53.532;-1.478;2023-01-15T10:35:56;98082.00;;;9.68;100.00
24666;BME280;29726;53.532;-1.478;2023-01-15T10:39:18;98079.22;;;9.68;100.00
24666;BME280;29726;53.532;-1.478;2023-01-15T10:41:45;98090.47;;;9.81;100.00
24666;BME280;29726;53.532;-1.478;2023-01-15T10:44:35;98097.00;;;9.88;100.00
24666;BME280;29726;53.532;-1.478;2023-01-15T10:47:11;98111.63;;;9.94;100.00
24666;BME280;29726;53.532;-1.478;2023-01-15T10:49:40;98098.16;;;9.98;100.00
24666;BME280;29726;53.532;-1.478;2023-01-15T10:55:02;98111.72;;;10.13;100.00
24666;BME280;29726;53.532;-1.478;2023-01-15T10:57:50;98108.59;;;10.22;100.00
24666;BME280;29726;53.532;-1.478;2023-01-15T11:00:17;98108.81;;;10.24;100.00
24666;BME280;29726;53.532;-1.478;2023-01-15T11:02:55;98119.84;;;10.35;100.00
24666;BME280;29726;53.532;-1.478;2023-01-15T11:05:24;98118.28;;;10.39;100.00
24666;BME280;29726;53.532;-1.478;2023-01-15T11:07:51;98128.34;;;10.48;100.00
24666;BME280;29726;53.532;-1.478;2023-01-15T11:10:19;98133.31;;;10.55;100.00
24666;BME280;29726;53.532;-1.478;2023-01-15T11:12:54;98134.75;;;10.61;100.00
24666;BME280;29726;53.532;-1.478;2023-01-15T11:15:44;98140.81;;;10.65;100.00
24666;BME280;29726;53.532;-1.478;2023-01-15T11:18:34;98138.41;;;10.75;100.00
24666;BME280;29726;53.532;-1.478;2023-01-15T11:21:21;98122.72;;;10.72;100.00
24666;BME280;29726;53.532;-1.478;2023-01-15T11:23:48;98132.66;;;10.86;100.00
24666;BME280;29726;53.532;-1.478;2023-01-15T11:26:23;98128.81;;;10.89;100.00
24666;BME280;29726;53.532;-1.478;2023-01-15T11:28:50;98118.66;;;10.91;100.00
24666;BME280;29726;53.532;-1.478;2023-01-15T11:31:16;98120.84;;;10.98;100.00
24666;BME280;29726;53.532;-1.478;2023-01-15T11:34:03;98130.81;;;11.12;100.00
24666;BME280;29726;53.532;-1.478;2023-01-15T11:36:31;98135.56;;;11.17;100.00
24666;BME280;29726;53.532;-1.478;2023-01-15T11:38:57;98134.19;;;11.24;100.00
24666;BME280;29726;53.532;-1.478;2023-01-15T11:44:12;98133.06;;;11.32;100.00
24666;BME280;29726;53.532;-1.478;2023-01-15T11:46:58;98127.31;;;11.25;100.00
24666;BME280;29726;53.532;-1.478;2023-01-15T11:49:52;98160.06;;;11.43;100.00
24666;BME280;29726;53.532;-1.478;2023-01-15T11:52:46;98164.59;;;11.46;100.00
24666;BME280;29726;53.532;-1.478;2023-01-15T11:55:17;98111.72;;;11.16;100.00
24666;BME280;29726;53.532;-1.478;2023-01-15T11:57:44;98149.63;;;11.43;100.00
24666;BME280;29726;53.532;-1.478;2023-01-15T12:00:24;98148.72;;;11.53;100.00
24666;BME280;29726;53.532;-1.478;2023-01-15T12:02:58;98148.72;;;11.53;100.00
24666;BME280;29726;53.532;-1.478;2023-01-15T12:05:31;98151.91;;;11.63;100.00
24666;BME280;29726;53.532;-1.478;2023-01-15T12:08:01;98151.38;;;11.64;100.00
24666;BME280;29726;53.532;-1.478;2023-01-15T12:10:36;98150.84;;;11.66;100.00
24666;BME280;29726;53.532;-1.478;2023-01-15T12:16:13;98145.84;;;11.77;100.00
24666;BME280;29726;53.532;-1.478;2023-01-15T12:25:22;98148.97;;;11.87;100.00
24666;BME280;29726;53.532;-1.478;2023-01-15T12:28:20;98166.97;;;11.91;100.00
24666;BME280;29726;53.532;-1.478;2023-01-15T12:36:06;98148.47;;;11.88;100.00
24666;BME280;29726;53.532;-1.478;2023-01-15T12:39:02;98115.72;;;11.70;100.00
24666;BME280;29726;53.532;-1.478;2023-01-15T12:41:35;98168.72;;;12.07;100.00
24666;BME280;29726;53.532;-1.478;2023-01-15T12:44:39;98172.69;;;12.12;100.00
24666;BME280;29726;53.532;-1.478;2023-01-15T12:50:14;98170.13;;;12.14;100.00
24666;BME280;29726;53.532;-1.478;2023-01-15T12:52:49;98180.16;;;12.22;100.00
24666;BME280;29726;53.532;-1.478;2023-01-15T12:55:22;98168.53;;;12.18;100.00
24666;BME280;29726;53.532;-1.478;2023-01-15T12:57:54;98195.34;;;12.27;100.00
24666;BME280;29726;53.532;-1.478;2023-01-15T13:00:36;98206.44;;;12.32;100.00
24666;BME280;29726;53.532;-1.478;2023-01-15T13:04:10;98202.00;;;12.37;100.00
24666;BME280;29726;53.532;-1.478;2023-01-15T13:06:26;98216.56;;;12.35;100.00
24666;BME280;29726;53.532;-1.478;2023-01-15T13:09:07;98221.50;;;12.42;100.00
24666;BME280;29726;53.532;-1.478;2023-01-15T13:11:35;98215.69;;;12.40;100.00
24666;BME280;29726;53.532;-1.478;2023-01-15T13:14:00;98221.94;;;12.46;100.00
24666;BME280;29726;53.532;-1.478;2023-01-15T13:21:44;98227.31;;;12.44;100.00
24666;BME280;29726;53.532;-1.478;2023-01-15T13:24:22;98228.94;;;12.53;100.00
24666;BME280;29726;53.532;-1.478;2023-01-15T13:27:02;98214.75;;;12.51;100.00
24666;BME280;29726;53.532;-1.478;2023-01-15T13:32:18;98223.13;;;12.51;100.00
24666;BME280;29726;53.532;-1.478;2023-01-15T13:34:52;98222.06;;;12.54;100.00
24666;BME280;29726;53.532;-1.478;2023-01-15T13:37:30;98242.22;;;12.65;100.00
24666;BME280;29726;53.532;-1.478;2023-01-15T13:40:37;98153.53;;;12.03;100.00
24666;BME280;29726;53.532;-1.478;2023-01-15T13:43:04;98202.22;;;12.39;100.00
24666;BME280;29726;53.532;-1.478;2023-01-15T13:45:40;98248.16;;;12.75;100.00
24666;BME280;29726;53.532;-1.478;2023-01-15T13:48:35;98226.72;;;12.64;100.00
24666;BME280;29726;53.532;-1.478;2023-01-15T13:51:06;98247.28;;;12.80;100.00
24666;BME280;29726;53.532;-1.478;2023-01-15T13:53:46;98234.56;;;12.79;100.00
24666;BME280;29726;53.532;-1.478;2023-01-15T13:56:23;98236.94;;;12.75;100.00
24666;BME280;29726;53.532;-1.478;2023-01-15T13:59:02;98258.81;;;12.89;100.00
24666;BME280;29726;53.532;-1.478;2023-01-15T14:01:35;98271.53;;;12.90;100.00
24666;BME280;29726;53.532;-1.478;2023-01-15T14:06:46;98271.25;;;12.94;100.00
24666;BME280;29726;53.532;-1.478;2023-01-15T14:09:25;98267.22;;;12.89;100.00
24666;BME280;29726;53.532;-1.478;2023-01-15T14:36:09;98262.09;;;13.06;100.00
24666;BME280;29726;53.532;-1.478;2023-01-15T14:38:49;98262.84;;;13.07;100.00
24666;BME280;29726;53.532;-1.478;2023-01-15T14:41:25;98264.03;;;13.11;100.00
24666;BME280;29726;53.532;-1.478;2023-01-15T14:43:52;98265.84;;;13.09;100.00
24666;BME280;29726;53.532;-1.478;2023-01-15T14:46:27;98267.34;;;13.10;100.00
24666;BME280;29726;53.532;-1.478;2023-01-15T14:48:53;98270.72;;;13.08;100.00